Terminal Aerodrome Forecast
Issued by NWS Paducah, KY

Home | Current Version | Previous Version | Text Only | Print | Product List | Glossary On
Versions: 1 2 3 4 5 6 7 8 9 10 11 12 13 14 15 16 17 18 19 20 21
872
FTUS43 KPAH 290539
TAFPAH
TAF
KPAH 290539Z 2906/3006 18007KT P6SM BKN035 OVC060
      TEMPO 2907/2909 18012G22KT 5SM -TSRA BR SCT008 OVC035CB
     FM291330 18012G22KT P6SM BKN020
     FM291900 17013G24KT P6SM BKN030=

USA.gov is the U.S. government's official web portal to all federal, state and local government web resources and services.